sensor_id;sensor_type;location;lat;lon;timestamp;P1;durP1;ratioP1;P2;durP2;ratioP2
11090;SDS011;5599;52.210;21.046;2023-04-07T00:01:31;18.60;;;15.60;;
11090;SDS011;5599;52.210;21.046;2023-04-07T00:04:00;22.47;;;16.47;;
11090;SDS011;5599;52.210;21.046;2023-04-07T00:06:30;18.13;;;15.87;;
11090;SDS011;5599;52.210;21.046;2023-04-07T00:08:59;19.77;;;16.33;;
11090;SDS011;5599;52.210;21.046;2023-04-07T00:11:28;20.37;;;16.60;;
11090;SDS011;5599;52.210;21.046;2023-04-07T00:13:58;20.43;;;17.07;;
11090;SDS011;5599;52.210;21.046;2023-04-07T00:16:27;21.27;;;17.30;;
11090;SDS011;5599;52.210;21.046;2023-04-07T00:18:57;21.00;;;17.50;;
11090;SDS011;5599;52.210;21.046;2023-04-07T00:21:26;22.50;;;17.50;;
11090;SDS011;5599;52.210;21.046;2023-04-07T00:23:56;24.73;;;18.33;;
11090;SDS011;5599;52.210;21.046;2023-04-07T00:26:25;19.77;;;16.90;;
11090;SDS011;5599;52.210;21.046;2023-04-07T00:28:57;20.67;;;17.20;;
11090;SDS011;5599;52.210;21.046;2023-04-07T00:31:27;22.30;;;18.33;;
11090;SDS011;5599;52.210;21.046;2023-04-07T00:33:58;21.77;;;17.37;;
11090;SDS011;5599;52.210;21.046;2023-04-07T00:36:27;22.83;;;18.60;;
11090;SDS011;5599;52.210;21.046;2023-04-07T00:38:57;26.53;;;19.13;;
11090;SDS011;5599;52.210;21.046;2023-04-07T00:41:26;23.33;;;19.27;;
11090;SDS011;5599;52.210;21.046;2023-04-07T00:43:56;22.63;;;18.43;;
11090;SDS011;5599;52.210;21.046;2023-04-07T00:46:25;23.40;;;18.90;;
11090;SDS011;5599;52.210;21.046;2023-04-07T00:48:55;23.60;;;18.93;;
11090;SDS011;5599;52.210;21.046;2023-04-07T00:51:26;23.40;;;18.60;;
11090;SDS011;5599;52.210;21.046;2023-04-07T00:53:55;24.70;;;18.70;;
11090;SDS011;5599;52.210;21.046;2023-04-07T00:56:24;21.50;;;17.27;;
11090;SDS011;5599;52.210;21.046;2023-04-07T00:58:54;25.53;;;18.73;;
11090;SDS011;5599;52.210;21.046;2023-04-07T01:01:25;21.87;;;18.23;;
11090;SDS011;5599;52.210;21.046;2023-04-07T01:04:00;21.43;;;18.40;;
11090;SDS011;5599;52.210;21.046;2023-04-07T01:06:34;26.93;;;17.93;;
11090;SDS011;5599;52.210;21.046;2023-04-07T01:09:06;22.03;;;17.90;;
11090;SDS011;5599;52.210;21.046;2023-04-07T01:11:40;23.53;;;17.60;;
11090;SDS011;5599;52.210;21.046;2023-04-07T01:14:18;22.30;;;18.97;;
11090;SDS011;5599;52.210;21.046;2023-04-07T01:16:58;23.70;;;20.07;;
11090;SDS011;5599;52.210;21.046;2023-04-07T01:19:33;23.73;;;18.67;;
11090;SDS011;5599;52.210;21.046;2023-04-07T01:22:08;27.07;;;18.87;;
11090;SDS011;5599;52.210;21.046;2023-04-07T01:24:47;25.27;;;20.13;;
11090;SDS011;5599;52.210;21.046;2023-04-07T01:27:33;25.07;;;19.33;;
11090;SDS011;5599;52.210;21.046;2023-04-07T01:30:11;23.60;;;18.30;;
11090;SDS011;5599;52.210;21.046;2023-04-07T01:32:44;23.40;;;19.03;;
11090;SDS011;5599;52.210;21.046;2023-04-07T01:35:19;24.20;;;18.57;;
11090;SDS011;5599;52.210;21.046;2023-04-07T01:37:51;24.70;;;19.43;;
11090;SDS011;5599;52.210;21.046;2023-04-07T01:40:22;26.00;;;19.60;;
11090;SDS011;5599;52.210;21.046;2023-04-07T01:42:52;29.43;;;20.00;;
11090;SDS011;5599;52.210;21.046;2023-04-07T01:45:25;26.70;;;20.63;;
11090;SDS011;5599;52.210;21.046;2023-04-07T01:47:55;27.03;;;21.03;;
11090;SDS011;5599;52.210;21.046;2023-04-07T01:50:25;29.67;;;21.60;;
11090;SDS011;5599;52.210;21.046;2023-04-07T01:52:55;28.00;;;21.20;;
11090;SDS011;5599;52.210;21.046;2023-04-07T01:55:25;26.73;;;20.37;;
11090;SDS011;5599;52.210;21.046;2023-04-07T01:58:04;28.07;;;20.57;;
11090;SDS011;5599;52.210;21.046;2023-04-07T02:00:38;28.33;;;21.27;;
11090;SDS011;5599;52.210;21.046;2023-04-07T02:03:17;30.63;;;21.90;;
11090;SDS011;5599;52.210;21.046;2023-04-07T02:05:51;26.27;;;21.00;;
11090;SDS011;5599;52.210;21.046;2023-04-07T02:08:26;30.00;;;22.37;;
11090;SDS011;5599;52.210;21.046;2023-04-07T02:10:59;29.07;;;23.07;;
11090;SDS011;5599;52.210;21.046;2023-04-07T02:13:33;29.27;;;22.30;;
11090;SDS011;5599;52.210;21.046;2023-04-07T02:16:10;31.20;;;23.07;;
11090;SDS011;5599;52.210;21.046;2023-04-07T02:18:40;32.67;;;24.50;;
11090;SDS011;5599;52.210;21.046;2023-04-07T02:21:11;27.77;;;23.07;;
11090;SDS011;5599;52.210;21.046;2023-04-07T02:23:44;31.63;;;24.47;;
11090;SDS011;5599;52.210;21.046;2023-04-07T02:26:14;33.40;;;24.73;;
11090;SDS011;5599;52.210;21.046;2023-04-07T02:28:44;30.23;;;24.97;;
11090;SDS011;5599;52.210;21.046;2023-04-07T02:31:17;29.83;;;23.30;;
11090;SDS011;5599;52.210;21.046;2023-04-07T02:33:47;35.97;;;24.10;;
11090;SDS011;5599;52.210;21.046;2023-04-07T02:36:16;36.97;;;26.20;;
11090;SDS011;5599;52.210;21.046;2023-04-07T02:38:45;32.57;;;24.53;;
11090;SDS011;5599;52.210;21.046;2023-04-07T02:41:15;32.17;;;24.93;;
11090;SDS011;5599;52.210;21.046;2023-04-07T02:43:44;32.20;;;26.03;;
11090;SDS011;5599;52.210;21.046;2023-04-07T02:46:15;35.03;;;25.70;;
11090;SDS011;5599;52.210;21.046;2023-04-07T02:48:46;37.70;;;28.83;;
11090;SDS011;5599;52.210;21.046;2023-04-07T02:51:15;33.97;;;26.17;;
11090;SDS011;5599;52.210;21.046;2023-04-07T02:53:44;33.80;;;26.00;;
11090;SDS011;5599;52.210;21.046;2023-04-07T02:56:14;39.77;;;29.30;;
11090;SDS011;5599;52.210;21.046;2023-04-07T02:58:43;36.90;;;27.60;;
11090;SDS011;5599;52.210;21.046;2023-04-07T03:01:12;35.90;;;26.27;;
11090;SDS011;5599;52.210;21.046;2023-04-07T03:03:42;42.27;;;28.00;;
11090;SDS011;5599;52.210;21.046;2023-04-07T03:06:22;38.30;;;26.50;;
11090;SDS011;5599;52.210;21.046;2023-04-07T03:09:04;39.03;;;28.60;;
11090;SDS011;5599;52.210;21.046;2023-04-07T03:11:34;38.80;;;27.83;;
11090;SDS011;5599;52.210;21.046;2023-04-07T03:14:03;36.50;;;28.63;;
11090;SDS011;5599;52.210;21.046;2023-04-07T03:16:39;43.00;;;30.50;;
11090;SDS011;5599;52.210;21.046;2023-04-07T03:19:11;36.90;;;28.43;;
11090;SDS011;5599;52.210;21.046;2023-04-07T03:21:45;36.57;;;28.03;;
11090;SDS011;5599;52.210;21.046;2023-04-07T03:24:14;37.23;;;29.13;;
11090;SDS011;5599;52.210;21.046;2023-04-07T03:26:45;40.77;;;29.60;;
11090;SDS011;5599;52.210;21.046;2023-04-07T03:29:35;37.07;;;28.30;;
11090;SDS011;5599;52.210;21.046;2023-04-07T03:32:07;40.50;;;29.90;;
11090;SDS011;5599;52.210;21.046;2023-04-07T03:34:36;38.23;;;29.00;;
11090;SDS011;5599;52.210;21.046;2023-04-07T03:37:07;40.53;;;28.23;;
11090;SDS011;5599;52.210;21.046;2023-04-07T03:39:37;39.87;;;30.63;;
11090;SDS011;5599;52.210;21.046;2023-04-07T03:42:22;42.97;;;30.43;;
11090;SDS011;5599;52.210;21.046;2023-04-07T03:44:57;40.17;;;28.83;;
11090;SDS011;5599;52.210;21.046;2023-04-07T03:47:28;43.80;;;30.17;;
11090;SDS011;5599;52.210;21.046;2023-04-07T03:50:00;46.83;;;32.37;;
11090;SDS011;5599;52.210;21.046;2023-04-07T03:52:35;45.60;;;31.17;;
11090;SDS011;5599;52.210;21.046;2023-04-07T03:55:13;42.27;;;30.30;;
11090;SDS011;5599;52.210;21.046;2023-04-07T03:57:42;42.40;;;30.33;;
11090;SDS011;5599;52.210;21.046;2023-04-07T04:00:12;40.00;;;29.47;;
11090;SDS011;5599;52.210;21.046;2023-04-07T04:02:59;40.90;;;30.57;;
11090;SDS011;5599;52.210;21.046;2023-04-07T04:05:30;48.17;;;31.47;;
11090;SDS011;5599;52.210;21.046;2023-04-07T04:08:01;44.77;;;31.23;;
11090;SDS011;5599;52.210;21.046;2023-04-07T04:10:32;45.27;;;31.37;;
11090;SDS011;5599;52.210;21.046;2023-04-07T04:13:02;42.63;;;30.67;;
11090;SDS011;5599;52.210;21.046;2023-04-07T04:15:33;40.80;;;30.07;;
11090;SDS011;5599;52.210;21.046;2023-04-07T04:18:07;41.73;;;30.70;;
11090;SDS011;5599;52.210;21.046;2023-04-07T04:20:36;38.17;;;29.37;;
11090;SDS011;5599;52.210;21.046;2023-04-07T04:23:08;38.13;;;29.30;;
11090;SDS011;5599;52.210;21.046;2023-04-07T04:25:37;41.23;;;28.80;;
11090;SDS011;5599;52.210;21.046;2023-04-07T04:28:09;41.40;;;31.03;;
11090;SDS011;5599;52.210;21.046;2023-04-07T04:30:39;43.97;;;30.97;;
11090;SDS011;5599;52.210;21.046;2023-04-07T04:33:09;40.37;;;30.27;;
11090;SDS011;5599;52.210;21.046;2023-04-07T04:35:50;41.17;;;29.97;;
11090;SDS011;5599;52.210;21.046;2023-04-07T04:38:21;35.80;;;29.80;;
11090;SDS011;5599;52.210;21.046;2023-04-07T04:41:02;39.10;;;30.90;;
11090;SDS011;5599;52.210;21.046;2023-04-07T04:43:32;37.93;;;29.07;;
11090;SDS011;5599;52.210;21.046;2023-04-07T04:46:03;40.03;;;29.27;;
11090;SDS011;5599;52.210;21.046;2023-04-07T04:48:37;37.23;;;28.83;;
11090;SDS011;5599;52.210;21.046;2023-04-07T04:51:07;39.20;;;28.87;;
11090;SDS011;5599;52.210;21.046;2023-04-07T04:53:39;42.80;;;31.10;;
11090;SDS011;5599;52.210;21.046;2023-04-07T04:56:09;38.53;;;31.03;;
11090;SDS011;5599;52.210;21.046;2023-04-07T04:58:42;36.93;;;30.70;;
11090;SDS011;5599;52.210;21.046;2023-04-07T05:01:42;40.97;;;31.47;;
11090;SDS011;5599;52.210;21.046;2023-04-07T05:04:15;36.27;;;30.80;;
11090;SDS011;5599;52.210;21.046;2023-04-07T05:06:53;41.30;;;31.83;;
11090;SDS011;5599;52.210;21.046;2023-04-07T05:09:27;41.17;;;31.27;;
11090;SDS011;5599;52.210;21.046;2023-04-07T05:11:57;40.90;;;30.30;;
11090;SDS011;5599;52.210;21.046;2023-04-07T05:14:31;36.77;;;29.90;;
11090;SDS011;5599;52.210;21.046;2023-04-07T05:17:04;41.50;;;30.97;;
11090;SDS011;5599;52.210;21.046;2023-04-07T05:19:34;41.47;;;31.83;;
11090;SDS011;5599;52.210;21.046;2023-04-07T05:22:10;37.70;;;30.07;;
11090;SDS011;5599;52.210;21.046;2023-04-07T05:24:47;38.33;;;30.10;;
11090;SDS011;5599;52.210;21.046;2023-04-07T05:27:17;46.97;;;32.17;;
11090;SDS011;5599;52.210;21.046;2023-04-07T05:29:51;38.73;;;30.63;;
11090;SDS011;5599;52.210;21.046;2023-04-07T05:32:26;40.63;;;32.20;;
11090;SDS011;5599;52.210;21.046;2023-04-07T05:35:00;40.37;;;31.90;;
11090;SDS011;5599;52.210;21.046;2023-04-07T05:37:33;39.60;;;31.03;;
11090;SDS011;5599;52.210;21.046;2023-04-07T05:40:06;37.33;;;29.40;;
11090;SDS011;5599;52.210;21.046;2023-04-07T05:42:36;42.30;;;32.00;;
11090;SDS011;5599;52.210;21.046;2023-04-07T05:45:07;38.40;;;31.30;;
11090;SDS011;5599;52.210;21.046;2023-04-07T05:47:41;36.70;;;29.57;;
11090;SDS011;5599;52.210;21.046;2023-04-07T05:50:10;35.40;;;27.97;;
11090;SDS011;5599;52.210;21.046;2023-04-07T05:52:43;34.07;;;27.83;;
11090;SDS011;5599;52.210;21.046;2023-04-07T05:55:22;37.37;;;30.17;;
11090;SDS011;5599;52.210;21.046;2023-04-07T05:57:51;39.60;;;31.47;;
11090;SDS011;5599;52.210;21.046;2023-04-07T06:00:24;40.83;;;30.57;;
11090;SDS011;5599;52.210;21.046;2023-04-07T06:03:07;38.13;;;31.77;;
11090;SDS011;5599;52.210;21.046;2023-04-07T06:05:57;42.20;;;31.60;;
11090;SDS011;5599;52.210;21.046;2023-04-07T06:08:27;38.27;;;33.83;;
11090;SDS011;5599;52.210;21.046;2023-04-07T06:10:57;39.30;;;31.70;;
11090;SDS011;5599;52.210;21.046;2023-04-07T06:13:27;37.23;;;33.03;;
11090;SDS011;5599;52.210;21.046;2023-04-07T06:15:57;35.80;;;31.70;;
11090;SDS011;5599;52.210;21.046;2023-04-07T06:18:26;35.67;;;28.77;;
11090;SDS011;5599;52.210;21.046;2023-04-07T06:20:55;37.07;;;30.13;;
11090;SDS011;5599;52.210;21.046;2023-04-07T06:23:25;37.83;;;30.60;;
11090;SDS011;5599;52.210;21.046;2023-04-07T06:25:54;37.93;;;31.87;;
11090;SDS011;5599;52.210;21.046;2023-04-07T06:28:25;34.40;;;29.93;;
11090;SDS011;5599;52.210;21.046;2023-04-07T06:30:54;37.97;;;30.73;;
11090;SDS011;5599;52.210;21.046;2023-04-07T06:33:25;38.67;;;29.93;;
11090;SDS011;5599;52.210;21.046;2023-04-07T06:35:55;37.37;;;29.93;;
11090;SDS011;5599;52.210;21.046;2023-04-07T06:38:25;39.37;;;31.77;;
11090;SDS011;5599;52.210;21.046;2023-04-07T06:40:54;41.03;;;32.47;;
11090;SDS011;5599;52.210;21.046;2023-04-07T06:43:25;37.13;;;31.20;;
11090;SDS011;5599;52.210;21.046;2023-04-07T06:46:00;34.77;;;30.70;;
11090;SDS011;5599;52.210;21.046;2023-04-07T06:48:29;33.67;;;30.03;;
11090;SDS011;5599;52.210;21.046;2023-04-07T06:50:58;33.93;;;30.30;;
11090;SDS011;5599;52.210;21.046;2023-04-07T06:53:27;36.03;;;29.27;;
11090;SDS011;5599;52.210;21.046;2023-04-07T06:56:03;33.10;;;28.77;;
11090;SDS011;5599;52.210;21.046;2023-04-07T06:58:36;37.13;;;30.23;;
11090;SDS011;5599;52.210;21.046;2023-04-07T07:01:06;35.17;;;29.00;;
11090;SDS011;5599;52.210;21.046;2023-04-07T07:03:35;34.00;;;29.80;;
11090;SDS011;5599;52.210;21.046;2023-04-07T07:06:05;30.57;;;26.43;;
11090;SDS011;5599;52.210;21.046;2023-04-07T07:08:34;30.13;;;27.03;;
11090;SDS011;5599;52.210;21.046;2023-04-07T07:11:03;29.37;;;26.00;;
11090;SDS011;5599;52.210;21.046;2023-04-07T07:13:32;31.27;;;25.33;;
11090;SDS011;5599;52.210;21.046;2023-04-07T07:16:03;28.83;;;25.73;;
11090;SDS011;5599;52.210;21.046;2023-04-07T07:18:33;29.83;;;24.83;;
11090;SDS011;5599;52.210;21.046;2023-04-07T07:21:03;29.60;;;25.27;;
11090;SDS011;5599;52.210;21.046;2023-04-07T07:23:33;27.10;;;24.33;;
11090;SDS011;5599;52.210;21.046;2023-04-07T07:26:02;26.33;;;23.53;;
11090;SDS011;5599;52.210;21.046;2023-04-07T07:28:32;30.63;;;25.47;;
11090;SDS011;5599;52.210;21.046;2023-04-07T07:31:08;27.53;;;24.53;;
11090;SDS011;5599;52.210;21.046;2023-04-07T07:33:39;27.47;;;24.40;;
11090;SDS011;5599;52.210;21.046;2023-04-07T07:36:10;31.80;;;25.47;;
11090;SDS011;5599;52.210;21.046;2023-04-07T07:38:39;27.80;;;24.77;;
11090;SDS011;5599;52.210;21.046;2023-04-07T07:41:09;25.67;;;23.07;;
11090;SDS011;5599;52.210;21.046;2023-04-07T07:43:38;25.70;;;23.00;;
11090;SDS011;5599;52.210;21.046;2023-04-07T07:46:09;26.40;;;23.63;;
11090;SDS011;5599;52.210;21.046;2023-04-07T07:48:38;31.37;;;23.97;;
11090;SDS011;5599;52.210;21.046;2023-04-07T07:51:07;26.27;;;23.40;;
11090;SDS011;5599;52.210;21.046;2023-04-07T07:53:36;26.77;;;22.67;;
11090;SDS011;5599;52.210;21.046;2023-04-07T07:56:06;26.97;;;23.00;;
11090;SDS011;5599;52.210;21.046;2023-04-07T07:58:35;25.80;;;23.10;;
11090;SDS011;5599;52.210;21.046;2023-04-07T08:01:04;26.67;;;24.07;;
11090;SDS011;5599;52.210;21.046;2023-04-07T08:03:35;25.60;;;22.90;;
11090;SDS011;5599;52.210;21.046;2023-04-07T08:06:05;26.07;;;23.37;;
11090;SDS011;5599;52.210;21.046;2023-04-07T08:08:35;24.37;;;21.87;;
11090;SDS011;5599;52.210;21.046;2023-04-07T08:11:04;25.63;;;22.87;;
11090;SDS011;5599;52.210;21.046;2023-04-07T08:13:34;25.73;;;22.73;;
11090;SDS011;5599;52.210;21.046;2023-04-07T08:16:04;26.90;;;21.93;;
11090;SDS011;5599;52.210;21.046;2023-04-07T08:18:35;23.30;;;20.90;;
11090;SDS011;5599;52.210;21.046;2023-04-07T08:21:05;23.63;;;21.23;;
11090;SDS011;5599;52.210;21.046;2023-04-07T08:23:34;23.23;;;20.80;;
11090;SDS011;5599;52.210;21.046;2023-04-07T08:26:04;23.40;;;20.90;;
11090;SDS011;5599;52.210;21.046;2023-04-07T08:28:33;27.53;;;21.03;;
11090;SDS011;5599;52.210;21.046;2023-04-07T08:31:02;22.47;;;20.10;;
11090;SDS011;5599;52.210;21.046;2023-04-07T08:33:31;22.03;;;19.63;;
11090;SDS011;5599;52.210;21.046;2023-04-07T08:36:02;23.13;;;20.53;;
11090;SDS011;5599;52.210;21.046;2023-04-07T08:38:32;20.87;;;18.67;;
11090;SDS011;5599;52.210;21.046;2023-04-07T08:41:02;23.50;;;20.83;;
11090;SDS011;5599;52.210;21.046;2023-04-07T08:43:35;22.40;;;20.10;;
11090;SDS011;5599;52.210;21.046;2023-04-07T08:46:06;22.37;;;19.90;;
11090;SDS011;5599;52.210;21.046;2023-04-07T08:48:38;22.63;;;20.30;;
11090;SDS011;5599;52.210;21.046;2023-04-07T08:51:13;21.90;;;19.60;;
11090;SDS011;5599;52.210;21.046;2023-04-07T08:53:45;19.90;;;17.87;;
11090;SDS011;5599;52.210;21.046;2023-04-07T08:56:17;20.37;;;18.33;;
11090;SDS011;5599;52.210;21.046;2023-04-07T08:58:48;20.30;;;18.07;;
11090;SDS011;5599;52.210;21.046;2023-04-07T09:01:18;20.83;;;18.70;;
11090;SDS011;5599;52.210;21.046;2023-04-07T09:03:48;20.47;;;18.47;;
11090;SDS011;5599;52.210;21.046;2023-04-07T09:06:20;20.33;;;18.37;;
11090;SDS011;5599;52.210;21.046;2023-04-07T09:08:49;21.03;;;18.83;;
11090;SDS011;5599;52.210;21.046;2023-04-07T09:11:18;20.00;;;17.90;;
11090;SDS011;5599;52.210;21.046;2023-04-07T09:13:49;21.37;;;19.13;;
11090;SDS011;5599;52.210;21.046;2023-04-07T09:16:19;19.33;;;17.43;;
11090;SDS011;5599;52.210;21.046;2023-04-07T09:18:49;23.37;;;19.27;;
11090;SDS011;5599;52.210;21.046;2023-04-07T09:21:22;20.80;;;18.77;;
11090;SDS011;5599;52.210;21.046;2023-04-07T09:23:51;22.30;;;18.27;;
11090;SDS011;5599;52.210;21.046;2023-04-07T09:26:21;22.48;;;20.40;;
11090;SDS011;5599;52.210;21.046;2023-04-07T09:28:52;22.53;;;19.50;;
11090;SDS011;5599;52.210;21.046;2023-04-07T09:31:23;20.10;;;18.10;;
11090;SDS011;5599;52.210;21.046;2023-04-07T09:34:22;20.57;;;18.57;;
11090;SDS011;5599;52.210;21.046;2023-04-07T09:36:54;19.60;;;17.50;;
11090;SDS011;5599;52.210;21.046;2023-04-07T09:39:23;20.63;;;18.53;;
11090;SDS011;5599;52.210;21.046;2023-04-07T09:41:53;20.40;;;18.13;;
11090;SDS011;5599;52.210;21.046;2023-04-07T09:44:23;19.13;;;17.10;;
11090;SDS011;5599;52.210;21.046;2023-04-07T09:46:53;18.83;;;16.73;;
11090;SDS011;5599;52.210;21.046;2023-04-07T09:49:24;17.60;;;15.90;;
11090;SDS011;5599;52.210;21.046;2023-04-07T09:51:56;17.83;;;16.03;;
11090;SDS011;5599;52.210;21.046;2023-04-07T09:54:33;18.97;;;16.73;;
11090;SDS011;5599;52.210;21.046;2023-04-07T09:57:04;19.00;;;17.13;;
11090;SDS011;5599;52.210;21.046;2023-04-07T09:59:35;18.03;;;16.30;;
11090;SDS011;5599;52.210;21.046;2023-04-07T10:02:07;19.30;;;16.97;;
11090;SDS011;5599;52.210;21.046;2023-04-07T10:04:37;16.80;;;15.20;;
11090;SDS011;5599;52.210;21.046;2023-04-07T10:07:08;17.80;;;16.03;;
11090;SDS011;5599;52.210;21.046;2023-04-07T10:09:38;16.67;;;15.07;;
11090;SDS011;5599;52.210;21.046;2023-04-07T10:12:07;16.97;;;14.50;;
11090;SDS011;5599;52.210;21.046;2023-04-07T10:14:37;15.93;;;14.43;;
11090;SDS011;5599;52.210;21.046;2023-04-07T10:17:06;17.13;;;15.00;;
11090;SDS011;5599;52.210;21.046;2023-04-07T10:19:35;17.57;;;14.90;;
11090;SDS011;5599;52.210;21.046;2023-04-07T10:22:05;17.17;;;15.47;;
11090;SDS011;5599;52.210;21.046;2023-04-07T10:24:43;17.30;;;15.43;;
11090;SDS011;5599;52.210;21.046;2023-04-07T10:27:32;18.10;;;15.67;;
11090;SDS011;5599;52.210;21.046;2023-04-07T10:30:04;16.60;;;14.67;;
11090;SDS011;5599;52.210;21.046;2023-04-07T10:32:46;17.03;;;15.23;;
11090;SDS011;5599;52.210;21.046;2023-04-07T10:35:16;15.70;;;14.03;;
11090;SDS011;5599;52.210;21.046;2023-04-07T10:40:41;14.73;;;13.33;;
11090;SDS011;5599;52.210;21.046;2023-04-07T10:43:11;14.87;;;13.47;;
11090;SDS011;5599;52.210;21.046;2023-04-07T10:45:53;15.77;;;13.00;;
11090;SDS011;5599;52.210;21.046;2023-04-07T10:48:26;14.27;;;12.87;;
11090;SDS011;5599;52.210;21.046;2023-04-07T10:51:15;16.97;;;14.50;;
11090;SDS011;5599;52.210;21.046;2023-04-07T10:57:06;14.27;;;12.90;;
11090;SDS011;5599;52.210;21.046;2023-04-07T10:59:41;16.00;;;13.43;;
11090;SDS011;5599;52.210;21.046;2023-04-07T11:02:31;15.60;;;12.73;;
11090;SDS011;5599;52.210;21.046;2023-04-07T11:05:02;13.67;;;12.37;;
11090;SDS011;5599;52.210;21.046;2023-04-07T11:10:32;18.67;;;13.33;;
11090;SDS011;5599;52.210;21.046;2023-04-07T11:13:04;18.27;;;13.37;;
11090;SDS011;5599;52.210;21.046;2023-04-07T11:15:35;14.47;;;12.97;;
11090;SDS011;5599;52.210;21.046;2023-04-07T11:18:10;13.30;;;11.97;;
11090;SDS011;5599;52.210;21.046;2023-04-07T11:20:45;14.10;;;12.67;;
11090;SDS011;5599;52.210;21.046;2023-04-07T11:23:16;13.77;;;12.47;;
11090;SDS011;5599;52.210;21.046;2023-04-07T11:25:48;13.53;;;12.17;;
11090;SDS011;5599;52.210;21.046;2023-04-07T11:28:20;14.23;;;12.60;;
11090;SDS011;5599;52.210;21.046;2023-04-07T11:30:50;13.03;;;11.63;;
11090;SDS011;5599;52.210;21.046;2023-04-07T11:33:21;14.80;;;11.57;;
11090;SDS011;5599;52.210;21.046;2023-04-07T11:35:53;13.53;;;11.67;;
11090;SDS011;5599;52.210;21.046;2023-04-07T11:38:24;14.27;;;12.37;;
11090;SDS011;5599;52.210;21.046;2023-04-07T11:40:55;12.43;;;11.27;;
11090;SDS011;5599;52.210;21.046;2023-04-07T11:43:26;11.30;;;10.30;;
11090;SDS011;5599;52.210;21.046;2023-04-07T11:46:02;12.53;;;10.77;;
11090;SDS011;5599;52.210;21.046;2023-04-07T11:48:33;10.30;;;9.30;;
11090;SDS011;5599;52.210;21.046;2023-04-07T11:51:03;10.63;;;9.70;;
11090;SDS011;5599;52.210;21.046;2023-04-07T11:53:34;10.77;;;9.70;;
11090;SDS011;5599;52.210;21.046;2023-04-07T11:56:06;10.90;;;9.93;;
11090;SDS011;5599;52.210;21.046;2023-04-07T11:58:38;12.90;;;11.30;;
11090;SDS011;5599;52.210;21.046;2023-04-07T12:01:15;11.70;;;10.57;;
11090;SDS011;5599;52.210;21.046;2023-04-07T12:03:54;11.80;;;10.80;;
11090;SDS011;5599;52.210;21.046;2023-04-07T12:06:25;11.77;;;10.67;;
11090;SDS011;5599;52.210;21.046;2023-04-07T12:08:56;11.50;;;10.50;;
11090;SDS011;5599;52.210;21.046;2023-04-07T12:11:25;12.37;;;11.20;;
11090;SDS011;5599;52.210;21.046;2023-04-07T12:13:57;11.10;;;10.10;;
11090;SDS011;5599;52.210;21.046;2023-04-07T12:16:27;12.27;;;11.07;;
11090;SDS011;5599;52.210;21.046;2023-04-07T12:18:57;11.90;;;10.53;;
11090;SDS011;5599;52.210;21.046;2023-04-07T12:21:26;13.60;;;11.70;;
11090;SDS011;5599;52.210;21.046;2023-04-07T12:23:56;11.47;;;10.47;;
11090;SDS011;5599;52.210;21.046;2023-04-07T12:26:25;13.00;;;11.90;;
11090;SDS011;5599;52.210;21.046;2023-04-07T12:28:54;12.03;;;11.03;;
11090;SDS011;5599;52.210;21.046;2023-04-07T12:31:27;12.67;;;11.47;;
11090;SDS011;5599;52.210;21.046;2023-04-07T12:33:57;12.77;;;11.57;;
11090;SDS011;5599;52.210;21.046;2023-04-07T12:36:27;12.40;;;11.20;;
11090;SDS011;5599;52.210;21.046;2023-04-07T12:38:56;11.80;;;10.80;;
11090;SDS011;5599;52.210;21.046;2023-04-07T12:41:26;12.07;;;10.97;;
11090;SDS011;5599;52.210;21.046;2023-04-07T12:43:55;9.23;;;8.33;;
11090;SDS011;5599;52.210;21.046;2023-04-07T12:46:24;5.30;;;4.80;;
11090;SDS011;5599;52.210;21.046;2023-04-07T12:48:55;6.17;;;4.83;;
11090;SDS011;5599;52.210;21.046;2023-04-07T12:51:25;4.50;;;4.20;;
11090;SDS011;5599;52.210;21.046;2023-04-07T12:53:55;4.63;;;4.23;;
11090;SDS011;5599;52.210;21.046;2023-04-07T12:56:24;3.90;;;3.60;;
11090;SDS011;5599;52.210;21.046;2023-04-07T12:58:54;3.20;;;2.90;;
11090;SDS011;5599;52.210;21.046;2023-04-07T13:01:24;3.43;;;3.13;;
11090;SDS011;5599;52.210;21.046;2023-04-07T13:03:54;3.23;;;2.93;;
11090;SDS011;5599;52.210;21.046;2023-04-07T13:06:25;2.93;;;2.67;;
11090;SDS011;5599;52.210;21.046;2023-04-07T13:08:54;3.07;;;2.80;;
11090;SDS011;5599;52.210;21.046;2023-04-07T13:11:24;3.03;;;2.70;;
11090;SDS011;5599;52.210;21.046;2023-04-07T13:13:53;3.13;;;2.63;;
11090;SDS011;5599;52.210;21.046;2023-04-07T13:16:25;3.80;;;2.67;;
11090;SDS011;5599;52.210;21.046;2023-04-07T13:18:56;4.63;;;3.10;;
11090;SDS011;5599;52.210;21.046;2023-04-07T13:21:26;3.97;;;2.93;;
11090;SDS011;5599;52.210;21.046;2023-04-07T13:24:12;3.37;;;3.07;;
11090;SDS011;5599;52.210;21.046;2023-04-07T13:26:42;3.37;;;3.07;;
11090;SDS011;5599;52.210;21.046;2023-04-07T13:29:11;3.20;;;2.87;;
11090;SDS011;5599;52.210;21.046;2023-04-07T13:31:41;3.40;;;3.10;;
11090;SDS011;5599;52.210;21.046;2023-04-07T13:34:12;3.37;;;3.07;;
11090;SDS011;5599;52.210;21.046;2023-04-07T13:36:41;3.63;;;3.20;;
11090;SDS011;5599;52.210;21.046;2023-04-07T13:39:11;3.90;;;2.70;;
11090;SDS011;5599;52.210;21.046;2023-04-07T13:41:40;3.73;;;2.80;;
11090;SDS011;5599;52.210;21.046;2023-04-07T13:44:09;3.43;;;3.13;;
11090;SDS011;5599;52.210;21.046;2023-04-07T13:46:39;3.17;;;2.87;;
11090;SDS011;5599;52.210;21.046;2023-04-07T13:49:08;3.90;;;3.33;;
11090;SDS011;5599;52.210;21.046;2023-04-07T13:51:38;4.00;;;3.60;;
11090;SDS011;5599;52.210;21.046;2023-04-07T13:54:08;3.13;;;2.83;;
11090;SDS011;5599;52.210;21.046;2023-04-07T13:56:37;3.33;;;3.03;;
11090;SDS011;5599;52.210;21.046;2023-04-07T13:59:07;4.93;;;3.93;;
11090;SDS011;5599;52.210;21.046;2023-04-07T14:01:36;3.97;;;3.10;;
11090;SDS011;5599;52.210;21.046;2023-04-07T14:04:06;3.10;;;2.80;;
11090;SDS011;5599;52.210;21.046;2023-04-07T14:06:35;4.30;;;3.67;;
11090;SDS011;5599;52.210;21.046;2023-04-07T14:09:06;4.10;;;3.70;;
11090;SDS011;5599;52.210;21.046;2023-04-07T14:11:35;4.03;;;3.63;;
11090;SDS011;5599;52.210;21.046;2023-04-07T14:14:05;3.50;;;3.20;;
11090;SDS011;5599;52.210;21.046;2023-04-07T14:16:35;3.60;;;3.30;;
11090;SDS011;5599;52.210;21.046;2023-04-07T14:19:04;4.77;;;3.70;;
11090;SDS011;5599;52.210;21.046;2023-04-07T14:21:33;4.13;;;3.73;;
11090;SDS011;5599;52.210;21.046;2023-04-07T14:24:02;4.30;;;3.53;;
11090;SDS011;5599;52.210;21.046;2023-04-07T14:26:33;4.77;;;4.03;;
11090;SDS011;5599;52.210;21.046;2023-04-07T14:29:02;4.40;;;3.60;;
11090;SDS011;5599;52.210;21.046;2023-04-07T14:31:32;4.10;;;3.57;;
11090;SDS011;5599;52.210;21.046;2023-04-07T14:34:01;4.40;;;3.73;;
11090;SDS011;5599;52.210;21.046;2023-04-07T14:36:31;4.30;;;3.47;;
11090;SDS011;5599;52.210;21.046;2023-04-07T14:39:00;4.80;;;3.60;;
11090;SDS011;5599;52.210;21.046;2023-04-07T14:41:30;3.93;;;3.37;;
11090;SDS011;5599;52.210;21.046;2023-04-07T14:44:01;3.63;;;3.07;;
11090;SDS011;5599;52.210;21.046;2023-04-07T14:46:30;3.17;;;2.87;;
11090;SDS011;5599;52.210;21.046;2023-04-07T14:48:59;5.27;;;3.70;;
11090;SDS011;5599;52.210;21.046;2023-04-07T14:51:29;5.37;;;3.37;;
11090;SDS011;5599;52.210;21.046;2023-04-07T14:53:58;4.33;;;3.37;;
11090;SDS011;5599;52.210;21.046;2023-04-07T14:56:28;3.23;;;2.90;;
11090;SDS011;5599;52.210;21.046;2023-04-07T14:58:57;3.43;;;3.13;;
11090;SDS011;5599;52.210;21.046;2023-04-07T15:01:28;4.47;;;3.67;;